Aérodrome :
LOGIN :

S'inscrire | Disclaimer

   EN    FR    IT 

 










Légende :    VFR   VFR Marginal   IFR   IFR Intensif   IFR Très Intensif
Visi : 
Plafond : 
>= 8 km
>= 3000ft
5 à 8 km
1000 à 3000 ft
1500m à 5 km
500 à 1000 ft
800 à 1500m
200 à 500 ft
< 800m
< 200 ft
Symboles :   Orages  Brouillard  Fortes neiges  Fortes précipitations  Vent > 20 kt
SIGMETs :   Divers  Orages  Givrage  Turbulence  Onde Orograph.  Cendres Volcan.







- Altitude de l'aérodrome : 160 ft
- Code IATA : LRT
- Voir les cartes d'approche


LFRH - Lorient Lann Bihoue

DERNIER METAR :
  • 210700Z AUTO 03003KT 350V070 CAVOK 12/10 Q1019 TEMPO 3000 BR

METARs EXPIRÉS :
  • 210630Z AUTO 04003KT 9999 FEW043 11/10 Q1019 TEMPO 3000 BR
  • 210600Z AUTO VRB02KT 9999 FEW043 09/08 Q1018 TEMPO 3000 BR
  • 210530Z AUTO 01002KT 9999 FEW043 08/07 Q1018 TEMPO 3000 BR
  • 210500Z AUTO 35002KT 9999 BKN042 08/07 Q1018 TEMPO 2000 BR
  • 210430Z AUTO 35003KT 8000 NSC 08/07 Q1018 TEMPO 2000 BR

TAF TAF LFRH
Valide du 21 à 06h jusqu'au 22 à 06h UTC


210500Z 2106/2206 35005KT 7000 SCT040
PROB40
TEMPO 2106/2108 3000 BR
BECMG 2110/2112 23010KT
TEMPO 2110/2115 24010G20KT SCT020TCU
PROB40
TEMPO 2112/2114 SCT040CB
BECMG 2115/2117 CAVOK
TEMPO 2120/2122 4000 BR
BECMG 2122/2124 04005KT BKN040
Pas de NOTAMs connus pour ce terrain.



MET'MAP, la Météo Aéronautique d'un coup d'oeil ! - Copyright ORBIFLY Décembre 2007 - Disclaimer

ORBIFLY MET'MAP TEAM :

Programmation & Développement : Alexandra Zaïnal
Conception & Développement : Baudouin d'Aumeries
Co-Programmation & Développement : Marc-Olivier Méhu
Soutien technique & logistique : Manuel Goepfert

Contact : metmap@orbifly.com




SOURCES & CREDITS :

   NOAA